createdAt,value
2023-03-04T00:03:59.857Z,24.05
2023-03-04T00:07:59.911Z,24.05
2023-03-04T00:11:59.895Z,24.05
2023-03-04T00:15:59.922Z,24.05
2023-03-04T00:19:59.860Z,24.06
2023-03-04T00:23:59.873Z,24.03
2023-03-04T00:27:59.874Z,24.03
2023-03-04T00:32:00.037Z,24.05
2023-03-04T00:35:59.933Z,24.02
2023-03-04T00:39:59.928Z,24.02
2023-03-04T00:43:59.951Z,24.03
2023-03-04T00:47:59.873Z,24.02
2023-03-04T00:51:59.932Z,24.00
2023-03-04T00:55:59.938Z,24.02
2023-03-04T00:59:59.940Z,24.02
2023-03-04T01:03:59.895Z,23.99
2023-03-04T01:07:59.905Z,24.00
2023-03-04T01:11:59.864Z,23.96
2023-03-04T01:15:59.847Z,23.96
2023-03-04T01:19:59.866Z,23.96
2023-03-04T01:23:59.882Z,23.96
2023-03-04T01:27:59.875Z,23.95
2023-03-04T01:31:59.928Z,23.93
2023-03-04T01:35:59.832Z,23.95
2023-03-04T01:39:59.792Z,23.93
2023-03-04T01:43:59.811Z,23.93
2023-03-04T01:47:59.799Z,23.95
2023-03-04T01:51:59.793Z,23.96
2023-03-04T01:55:59.817Z,23.95
2023-03-04T01:59:59.808Z,23.96
2023-03-04T02:03:59.853Z,23.95
2023-03-04T02:07:59.767Z,23.95
2023-03-04T02:11:59.789Z,23.95
2023-03-04T02:15:59.827Z,23.93
2023-03-04T02:19:59.799Z,23.95
2023-03-04T02:23:59.786Z,23.92
2023-03-04T02:27:59.789Z,23.95
2023-03-04T02:31:59.892Z,23.90
2023-03-04T02:35:59.804Z,23.90
2023-03-04T02:39:59.800Z,23.89
2023-03-04T02:43:59.819Z,23.89
2023-03-04T02:47:59.866Z,23.89
2023-03-04T02:51:59.848Z,23.90
2023-03-04T02:55:59.879Z,23.86
2023-03-04T02:59:59.898Z,23.88
2023-03-04T03:03:59.932Z,23.86
2023-03-04T03:07:59.921Z,23.86
2023-03-04T03:11:59.962Z,23.86
2023-03-04T03:16:00.023Z,23.85
2023-03-04T03:19:59.989Z,23.85
2023-03-04T03:23:59.986Z,23.85
2023-03-04T03:28:00.029Z,23.83
2023-03-04T03:32:00.083Z,23.85
2023-03-04T03:36:00.177Z,23.85
2023-03-04T03:40:00.209Z,23.83
2023-03-04T03:44:00.190Z,23.86
2023-03-04T03:48:00.223Z,23.82
2023-03-04T03:52:00.277Z,23.86
2023-03-04T03:56:00.315Z,23.83
2023-03-04T04:00:00.400Z,23.83
2023-03-04T04:04:00.390Z,23.80
2023-03-04T04:08:00.474Z,23.80
2023-03-04T04:12:00.515Z,23.83
2023-03-04T04:16:00.606Z,23.78
2023-03-04T04:20:00.673Z,23.80
2023-03-04T04:24:00.760Z,23.79
2023-03-04T04:28:00.854Z,23.78
2023-03-04T04:32:00.972Z,23.75
2023-03-04T04:36:01.120Z,23.75
2023-03-04T04:40:01.219Z,23.75
2023-03-04T04:44:01.274Z,23.78
2023-03-04T04:48:01.332Z,23.72
2023-03-04T04:52:01.444Z,23.70
2023-03-04T04:56:01.532Z,23.72
2023-03-04T05:00:01.679Z,23.72
2023-03-04T05:04:01.689Z,23.69
2023-03-04T05:08:01.780Z,23.69
2023-03-04T05:12:01.828Z,23.72
2023-03-04T05:16:02.025Z,23.73
2023-03-04T05:20:02.001Z,23.69
2023-03-04T05:24:02.086Z,23.69
2023-03-04T05:28:02.268Z,23.72
2023-03-04T05:32:02.364Z,23.68
2023-03-04T05:36:02.454Z,23.68
2023-03-04T05:40:02.526Z,23.66
2023-03-04T05:44:02.618Z,23.66
2023-03-04T05:48:02.746Z,23.65
2023-03-04T05:52:02.887Z,23.65
2023-03-04T05:56:02.981Z,23.64
2023-03-04T06:00:03.099Z,23.64
2023-03-04T06:04:03.288Z,23.64
2023-03-04T06:08:03.352Z,23.64
2023-03-04T06:12:03.480Z,23.64
2023-03-04T06:16:03.610Z,23.65
2023-03-04T06:20:03.710Z,23.61
2023-03-04T06:24:03.827Z,23.62
2023-03-04T06:28:03.912Z,23.62
2023-03-04T06:32:04.118Z,23.62
2023-03-04T06:36:04.223Z,23.62
2023-03-04T06:40:04.375Z,23.58
2023-03-04T06:44:04.487Z,23.59
2023-03-04T06:48:04.623Z,23.61
2023-03-04T06:52:04.740Z,23.61
2023-03-04T06:56:04.864Z,23.61
2023-03-04T07:00:05.040Z,23.61
2023-03-04T07:04:05.190Z,23.62
2023-03-04T07:08:05.253Z,23.64
2023-03-04T07:12:05.376Z,23.62
2023-03-04T07:16:05.518Z,23.61
2023-03-04T07:20:05.578Z,23.64
2023-03-04T07:24:05.708Z,23.64
2023-03-04T07:28:05.860Z,23.64
2023-03-04T07:32:06.190Z,23.66
2023-03-04T07:36:06.099Z,23.65
2023-03-04T07:40:06.225Z,23.61
2023-03-04T07:44:06.407Z,23.64
2023-03-04T07:48:06.488Z,23.68
2023-03-04T07:52:06.656Z,23.65
2023-03-04T07:56:06.807Z,23.64
2023-03-04T08:00:06.946Z,23.65
2023-03-04T08:04:07.153Z,23.66
2023-03-04T08:08:07.245Z,23.65
2023-03-04T08:12:07.354Z,23.66
2023-03-04T08:16:07.540Z,23.66
2023-03-04T08:20:07.596Z,23.68
2023-03-04T08:24:07.719Z,23.66
2023-03-04T08:28:07.810Z,23.70
2023-03-04T08:32:08.092Z,23.69
2023-03-04T08:36:08.042Z,23.70
2023-03-04T08:40:08.208Z,23.69
2023-03-04T08:44:08.302Z,23.70
2023-03-04T08:48:08.385Z,23.69
2023-03-04T08:52:08.509Z,23.70
2023-03-04T08:56:08.634Z,23.70
2023-03-04T09:00:08.757Z,23.69
2023-03-04T09:04:08.833Z,23.73
2023-03-04T09:08:08.911Z,23.73
2023-03-04T09:12:08.995Z,23.73
2023-03-04T09:16:09.110Z,23.72
2023-03-04T09:20:09.201Z,23.76
2023-03-04T09:24:09.269Z,23.76
2023-03-04T09:28:09.346Z,23.75
2023-03-04T09:32:09.442Z,23.76
2023-03-04T09:36:09.538Z,23.76
2023-03-04T09:40:09.581Z,23.79
2023-03-04T09:44:09.665Z,23.78
2023-03-04T09:48:09.726Z,23.79
2023-03-04T09:52:09.788Z,23.80
2023-03-04T09:56:09.853Z,23.80
2023-03-04T10:00:09.874Z,23.80
2023-03-04T10:04:09.932Z,23.80
2023-03-04T10:08:09.945Z,23.83
2023-03-04T10:12:10.017Z,23.83
2023-03-04T10:16:10.109Z,23.83
2023-03-04T10:20:10.095Z,23.83
2023-03-04T10:24:10.864Z,23.83
2023-03-04T10:28:10.133Z,23.83
2023-03-04T10:32:10.149Z,23.83
2023-03-04T10:36:10.175Z,23.86
2023-03-04T10:40:10.248Z,23.86
2023-03-04T10:44:10.253Z,23.88
2023-03-04T10:48:10.265Z,23.88
2023-03-04T10:52:10.288Z,23.89
2023-03-04T10:56:10.318Z,23.90
2023-03-04T11:00:10.345Z,23.90
2023-03-04T11:04:10.426Z,23.92
2023-03-04T11:08:10.363Z,23.90
2023-03-04T11:12:10.386Z,23.92
2023-03-04T11:16:10.435Z,23.93
2023-03-04T11:20:10.383Z,23.93
2023-03-04T11:24:25.768Z,23.93
2023-03-04T11:28:11.644Z,23.95
2023-03-04T11:32:10.486Z,23.96
2023-03-04T11:36:10.291Z,23.95
2023-03-04T11:40:10.323Z,23.96
2023-03-04T11:44:10.248Z,23.99
2023-03-04T11:48:10.197Z,23.99
2023-03-04T11:52:10.198Z,24.00
2023-03-04T11:56:10.154Z,24.00
2023-03-04T12:00:10.125Z,24.03
2023-03-04T12:04:10.229Z,24.05
2023-03-04T12:08:10.048Z,24.07
2023-03-04T12:12:09.995Z,24.10
2023-03-04T12:16:10.127Z,24.13
2023-03-04T12:20:10.120Z,24.20
2023-03-04T12:24:10.055Z,24.24
2023-03-04T12:28:10.054Z,24.29
2023-03-04T12:32:10.019Z,24.36
2023-03-04T12:36:09.963Z,24.41
2023-03-04T12:40:09.941Z,24.49
2023-03-04T12:44:09.863Z,24.54
2023-03-04T12:48:09.851Z,24.61
2023-03-04T12:52:09.829Z,24.71
2023-03-04T12:56:10.408Z,24.78
2023-03-04T13:00:09.742Z,24.84
2023-03-04T13:04:09.687Z,24.94
2023-03-04T13:08:09.675Z,24.98
2023-03-04T13:12:09.714Z,25.07
2023-03-04T13:16:09.774Z,25.11
2023-03-04T13:20:09.787Z,25.15
2023-03-04T13:24:09.819Z,25.22
2023-03-04T13:28:09.795Z,25.19
2023-03-04T13:32:09.868Z,25.32
2023-03-04T13:36:09.748Z,25.33
2023-03-04T13:40:09.773Z,25.42
2023-03-04T13:44:09.886Z,25.45
2023-03-04T13:48:09.834Z,25.49
2023-03-04T13:52:09.786Z,25.53
2023-03-04T13:56:09.775Z,25.56
2023-03-04T14:00:09.752Z,25.59
2023-03-04T14:04:09.707Z,25.59
2023-03-04T14:08:09.659Z,25.61
2023-03-04T14:12:09.655Z,25.61
2023-03-04T14:16:09.666Z,25.56
2023-03-04T14:20:09.569Z,25.56
2023-03-04T14:24:09.513Z,25.55
2023-03-04T14:28:09.490Z,25.42
2023-03-04T14:32:09.708Z,25.39
2023-03-04T14:36:09.642Z,25.41
2023-03-04T14:40:09.612Z,25.39
2023-03-04T14:44:09.555Z,25.35
2023-03-04T14:48:09.535Z,25.36
2023-03-04T14:52:09.521Z,25.33
2023-03-04T14:56:09.487Z,25.33
2023-03-04T15:00:09.479Z,25.31
2023-03-04T15:04:09.416Z,25.32
2023-03-04T15:08:09.368Z,25.32
2023-03-04T15:12:09.465Z,25.28
2023-03-04T15:16:09.487Z,25.29
2023-03-04T15:20:09.503Z,25.29
2023-03-04T15:24:09.337Z,25.29
2023-03-04T15:28:09.301Z,25.28
2023-03-04T15:32:09.270Z,25.31
2023-03-04T15:36:09.233Z,25.32
2023-03-04T15:40:09.224Z,25.33
2023-03-04T15:44:09.164Z,25.35
2023-03-04T15:48:09.109Z,25.33
2023-03-04T15:52:09.326Z,25.33
2023-03-04T15:56:09.287Z,25.39
2023-03-04T16:00:09.299Z,25.39
2023-03-04T16:04:09.308Z,25.41
2023-03-04T16:08:09.175Z,25.39
2023-03-04T16:12:09.159Z,25.39
2023-03-04T16:16:09.116Z,25.42
2023-03-04T16:20:09.090Z,25.42
2023-03-04T16:24:09.047Z,25.39
2023-03-04T16:28:09.030Z,25.29
2023-03-04T16:32:09.007Z,25.25
2023-03-04T16:36:09.153Z,25.18
2023-03-04T16:40:09.225Z,25.17
2023-03-04T16:44:09.339Z,25.08
2023-03-04T16:48:09.288Z,25.04
2023-03-04T16:52:09.257Z,25.02
2023-03-04T16:56:09.284Z,24.98
2023-03-04T17:00:09.305Z,24.95
2023-03-04T17:04:09.281Z,24.92
2023-03-04T17:08:09.280Z,24.88
2023-03-04T17:12:09.305Z,24.85
2023-03-04T17:16:09.360Z,24.80
2023-03-04T17:20:09.407Z,24.78
2023-03-04T17:24:11.181Z,24.74
2023-03-04T17:28:09.565Z,24.71
2023-03-04T17:32:09.759Z,24.70
2023-03-04T17:36:11.828Z,24.71
2023-03-04T17:40:09.924Z,24.68
2023-03-04T17:44:10.091Z,24.64
2023-03-04T17:48:10.448Z,24.66
2023-03-04T17:52:10.402Z,24.61
2023-03-04T17:56:10.544Z,24.60
2023-03-04T18:00:10.704Z,24.57
2023-03-04T18:04:10.883Z,24.57
2023-03-04T18:08:11.036Z,24.57
2023-03-04T18:12:11.211Z,24.56
2023-03-04T18:16:11.354Z,24.56
2023-03-04T18:20:11.499Z,24.56
2023-03-04T18:24:11.691Z,24.53
2023-03-04T18:28:11.821Z,24.50
2023-03-04T18:32:13.043Z,24.47
2023-03-04T18:36:12.123Z,24.47
2023-03-04T18:40:12.293Z,24.47
2023-03-04T18:44:12.452Z,24.44
2023-03-04T18:48:12.640Z,24.43
2023-03-04T18:52:12.786Z,24.41
2023-03-04T18:56:12.993Z,24.40
2023-03-04T19:00:13.169Z,24.39
2023-03-04T19:04:13.420Z,24.37
2023-03-04T19:08:13.585Z,24.36
2023-03-04T19:12:13.794Z,24.33
2023-03-04T19:16:14.036Z,24.31
2023-03-04T19:20:13.983Z,24.33
2023-03-04T19:24:13.960Z,24.31
2023-03-04T19:28:13.917Z,24.30
2023-03-04T19:32:13.908Z,24.30
2023-03-04T19:36:13.815Z,24.24
2023-03-04T19:40:13.782Z,24.27
2023-03-04T19:44:13.848Z,24.26
2023-03-04T19:48:13.739Z,24.26
2023-03-04T19:52:13.680Z,24.24
2023-03-04T19:56:13.723Z,24.21
2023-03-04T20:00:13.779Z,24.23
2023-03-04T20:04:13.713Z,24.23
2023-03-04T20:08:13.628Z,24.20
2023-03-04T20:12:13.570Z,24.21
2023-03-04T20:16:13.652Z,24.20
2023-03-04T20:20:13.498Z,24.20
2023-03-04T20:24:13.459Z,24.21
2023-03-04T20:28:13.415Z,24.19
2023-03-04T20:32:13.462Z,24.19
2023-03-04T20:36:13.350Z,24.16
2023-03-04T20:40:13.526Z,24.15
2023-03-04T20:44:13.655Z,24.15
2023-03-04T20:48:13.843Z,24.13
2023-03-04T20:52:14.022Z,24.10
2023-03-04T20:56:14.149Z,24.13
2023-03-04T21:00:14.216Z,24.13
2023-03-04T21:04:14.329Z,24.09
2023-03-04T21:08:14.319Z,24.12
2023-03-04T21:12:14.370Z,24.09
2023-03-04T21:16:14.453Z,24.09
2023-03-04T21:20:14.374Z,24.06
2023-03-04T21:24:14.485Z,24.09
2023-03-04T21:28:14.577Z,24.09
2023-03-04T21:32:23.825Z,24.06
2023-03-04T21:36:15.567Z,24.05
2023-03-04T21:40:14.524Z,24.07
2023-03-04T21:44:22.991Z,24.06
2023-03-04T21:48:15.481Z,24.06
2023-03-04T21:52:14.460Z,24.05
2023-03-04T21:56:14.455Z,24.07
2023-03-04T22:00:14.582Z,24.06
2023-03-04T22:04:14.686Z,24.06
2023-03-04T22:08:14.873Z,24.05
2023-03-04T22:12:16.383Z,24.02
2023-03-04T22:16:14.854Z,24.05
2023-03-04T22:20:14.776Z,24.02
2023-03-04T22:24:14.698Z,24.02
2023-03-04T22:28:14.703Z,23.99
2023-03-04T22:32:14.719Z,23.96
2023-03-04T22:36:14.632Z,23.98
2023-03-04T22:40:14.589Z,23.96
2023-03-04T22:44:14.563Z,23.98
2023-03-04T22:48:14.511Z,23.95
2023-03-04T22:52:14.467Z,23.92
2023-03-04T22:56:14.444Z,23.92
2023-03-04T23:00:14.403Z,23.92
2023-03-04T23:04:14.363Z,23.92
2023-03-04T23:08:14.321Z,23.92
2023-03-04T23:12:14.274Z,23.93
2023-03-04T23:16:14.276Z,23.95
2023-03-04T23:20:14.197Z,23.95
2023-03-04T23:24:14.167Z,23.92
2023-03-04T23:28:14.144Z,23.95
2023-03-04T23:32:14.152Z,23.93
2023-03-04T23:36:14.997Z,23.89
2023-03-04T23:40:14.008Z,23.90
2023-03-04T23:44:13.974Z,23.88
2023-03-04T23:48:13.961Z,23.90
2023-03-04T23:52:13.912Z,23.89
2023-03-04T23:56:13.849Z,23.89
